EISG

Sligo Airport

Sligo, Ireland
METAR EISG 181500Z 24011KT 9999 SCT030 04/02 Q1001
Observed Flight Rules
Jan-18 @ 15:00 UTC (45 minutes ago) Visual Flight Rules
Wind Visibility Clouds
240° at 11 knots 10,000+ meters
  • Scattered at 3,000' AGL
Temperatures Readings
Current 4°C / 39°F
Dewpoint 2°C / 36°F
Humidity 87%
Altimeter 29.56" Hg
Pressure 1001 hPa
Elevation 3
METAR EISG 181500Z 24011KT 9999 SCT030 04/02 Q1001
Observed Flight Rules
Jan-18 @ 15:00 UTC
(45 minutes ago)
VFR
Wind Visibility
240° at 11 knots 10,000+ meters
Clouds
  • Scattered at 3,000' AGL
Temperature Dewpoint
4°C / 39°F 2°C / 36°F
Humidity Altimeter Pressure
87% 29.56" Hg 1001 hPa